createdAt,value
2023-01-12T00:02:24.984Z,2.30
2023-01-12T00:04:53.000Z,2.60
2023-01-12T00:07:22.478Z,2.00
2023-01-12T00:09:50.464Z,2.03
2023-01-12T00:12:18.622Z,1.90
2023-01-12T00:14:46.811Z,2.30
2023-01-12T00:17:18.376Z,1.50
2023-01-12T00:19:46.845Z,1.63
2023-01-12T00:22:18.336Z,2.10
2023-01-12T00:24:49.932Z,1.70
2023-01-12T00:27:20.506Z,1.97
2023-01-12T00:29:49.282Z,1.50
2023-01-12T00:32:19.373Z,2.20
2023-01-12T00:34:47.519Z,1.43
2023-01-12T00:37:15.745Z,2.00
2023-01-12T00:39:56.596Z,2.00
2023-01-12T00:42:43.813Z,1.70
2023-01-12T00:45:24.797Z,1.90
2023-01-12T00:47:54.420Z,1.90
2023-01-12T00:50:22.766Z,2.00
2023-01-12T00:52:50.815Z,2.00
2023-01-12T00:55:18.929Z,2.10
2023-01-12T00:57:48.310Z,1.97
2023-01-12T01:00:17.889Z,1.63
2023-01-12T01:02:46.205Z,1.60
2023-01-12T01:05:14.539Z,1.57
2023-01-12T01:07:42.822Z,1.50
2023-01-12T01:10:12.209Z,1.60
2023-01-12T01:12:40.344Z,1.90
2023-01-12T01:15:10.784Z,1.60
2023-01-12T01:17:38.853Z,1.50
2023-01-12T01:20:07.628Z,1.57
2023-01-12T01:22:35.747Z,2.23
2023-01-12T01:25:03.938Z,1.70
2023-01-12T01:27:32.506Z,1.77
2023-01-12T01:30:00.518Z,1.50
2023-01-12T01:32:30.908Z,1.60
2023-01-12T01:34:59.073Z,1.93
2023-01-12T01:37:27.245Z,1.83
2023-01-12T01:39:56.216Z,1.60
2023-01-12T01:42:29.230Z,1.60
2023-01-12T01:45:07.480Z,1.67
2023-01-12T01:47:40.907Z,2.27
2023-01-12T01:50:17.066Z,2.13
2023-01-12T01:52:49.833Z,1.30
2023-01-12T01:55:22.285Z,1.30
2023-01-12T01:57:53.686Z,1.60
2023-01-12T02:00:22.784Z,1.67
2023-01-12T02:02:54.204Z,1.33
2023-01-12T02:05:25.984Z,1.58
2023-01-12T02:07:54.919Z,1.63
2023-01-12T02:10:23.063Z,1.90
2023-01-12T02:13:09.449Z,2.13
2023-01-12T10:26:06.539Z,2.73
2023-01-12T10:28:37.947Z,2.90
2023-01-12T10:31:06.396Z,3.40
2023-01-12T10:33:36.138Z,3.67
2023-01-12T10:36:06.977Z,3.17
2023-01-12T10:38:38.589Z,2.97
2023-01-12T10:41:17.011Z,3.50
2023-01-12T10:43:46.897Z,3.30
2023-01-12T10:46:17.268Z,3.87
2023-01-12T10:48:47.295Z,3.10
2023-01-12T10:51:26.172Z,3.10
2023-01-12T10:53:58.991Z,2.90
2023-01-12T10:56:35.673Z,3.10
2023-01-12T10:59:07.993Z,2.77
2023-01-12T11:01:47.582Z,2.73
2023-01-12T11:04:20.031Z,3.17
2023-01-12T11:06:58.551Z,3.70
2023-01-12T11:09:28.665Z,3.47
2023-01-12T11:12:00.018Z,3.30
2023-01-12T11:14:34.333Z,2.60
2023-01-12T11:17:21.145Z,2.60
2023-01-12T11:19:51.632Z,2.67
2023-01-12T11:22:27.337Z,3.37
2023-01-12T11:25:00.208Z,3.10
2023-01-12T11:27:35.085Z,6.90
2023-01-12T11:30:10.403Z,3.70
2023-01-12T11:32:43.046Z,1.90
2023-01-12T11:35:29.118Z,1.90
2023-01-12T11:38:01.632Z,1.40
2023-01-12T11:40:32.857Z,1.63
2023-01-12T11:43:29.883Z,1.37
2023-01-12T11:46:05.484Z,1.10
2023-01-12T11:48:40.088Z,1.30
2023-01-12T11:51:17.747Z,1.90
2023-01-12T11:53:46.375Z,1.47
2023-01-12T11:56:28.438Z,2.30
2023-01-12T11:59:06.782Z,2.87
2023-01-12T12:01:42.307Z,1.70
2023-01-12T12:04:22.549Z,3.77
2023-01-12T12:07:09.904Z,1.43
2023-01-12T12:09:54.271Z,2.30
2023-01-12T12:12:32.714Z,2.40
2023-01-12T12:15:18.069Z,2.23
2023-01-12T12:17:56.006Z,4.60
2023-01-12T12:20:55.122Z,1.40
2023-01-12T12:23:31.535Z,1.77
2023-01-12T12:26:09.215Z,1.60
2023-01-12T12:28:58.093Z,1.97
2023-01-12T12:31:45.852Z,1.10
2023-01-12T12:34:29.918Z,1.40
2023-01-12T12:37:03.171Z,1.93
2023-01-12T12:39:49.035Z,2.30
2023-01-12T12:43:03.424Z,2.30
2023-01-12T12:45:42.703Z,2.33
2023-01-12T12:48:16.633Z,7.00
2023-01-12T12:50:51.043Z,2.20
2023-01-12T12:53:25.325Z,1.80
2023-01-12T12:55:55.550Z,5.93
2023-01-12T12:58:38.916Z,8.37
2023-01-12T13:01:43.804Z,3.90
2023-01-12T13:04:14.957Z,6.97
2023-01-12T13:06:50.591Z,33.13
2023-01-12T13:09:38.203Z,12.07
2023-01-12T13:12:32.349Z,21.27
2023-01-12T13:15:37.755Z,3.57
2023-01-12T13:18:07.256Z,3.30
2023-01-12T13:20:55.741Z,2.27
2023-01-12T13:23:44.583Z,3.00
2023-01-12T13:26:52.209Z,3.30
2023-01-12T13:29:40.850Z,9.90
2023-01-12T13:32:43.908Z,2.53
2023-01-12T13:35:55.747Z,6.70
2023-01-12T13:38:56.337Z,2.07
2023-01-12T13:41:47.214Z,1.10
2023-01-12T13:44:47.129Z,0.93
2023-01-12T13:47:32.909Z,2.73
2023-01-12T13:50:03.354Z,3.00
2023-01-12T13:52:34.007Z,1.83
2023-01-12T13:55:03.174Z,1.23
2023-01-12T13:57:32.915Z,1.70
2023-01-12T14:00:04.780Z,1.27
2023-01-12T14:02:41.812Z,5.70
2023-01-12T14:05:35.711Z,15.20
2023-01-12T14:08:26.154Z,10.63
2023-01-12T14:11:00.963Z,2.67
2023-01-12T14:13:43.137Z,2.10
2023-01-12T14:16:31.492Z,2.80
2023-01-12T14:18:59.719Z,3.53
2023-01-12T14:21:32.807Z,3.00
2023-01-12T14:24:16.279Z,2.70
2023-01-12T14:26:44.483Z,1.80
2023-01-12T14:29:14.080Z,1.70
2023-01-12T14:31:45.409Z,1.50
2023-01-12T14:34:28.641Z,1.23
2023-01-12T14:36:57.698Z,2.20
2023-01-12T14:39:27.580Z,4.03
2023-01-12T14:42:14.428Z,2.97
2023-01-12T14:45:20.830Z,2.60
2023-01-12T14:47:49.871Z,2.50
2023-01-12T14:50:20.267Z,2.80
2023-01-12T14:52:49.538Z,2.20
2023-01-12T14:55:19.395Z,2.20
2023-01-12T14:57:51.634Z,1.80
2023-01-12T15:00:24.523Z,6.00
2023-01-12T15:02:55.473Z,3.13
2023-01-12T15:05:26.412Z,3.80
2023-01-12T15:07:57.279Z,1.83
2023-01-12T15:10:34.394Z,1.30
2023-01-12T15:13:24.790Z,1.20
2023-01-12T15:16:13.258Z,1.17
2023-01-12T15:18:58.835Z,1.10
2023-01-12T15:21:45.626Z,0.80
2023-01-12T15:24:43.089Z,0.90
2023-01-12T15:27:13.180Z,0.90
2023-01-12T15:29:41.351Z,1.10
2023-01-12T15:32:19.073Z,0.80
2023-01-12T15:34:47.803Z,0.90
2023-01-12T15:37:16.921Z,1.50
2023-01-12T15:39:44.936Z,0.93
2023-01-12T15:42:17.277Z,4.60
2023-01-12T15:44:45.578Z,7.83
2023-01-12T15:47:16.499Z,26.13
2023-01-12T15:49:48.570Z,26.43
2023-01-12T15:52:20.175Z,12.10
2023-01-12T15:54:48.202Z,33.73
2023-01-12T15:57:17.241Z,11.13
2023-01-12T15:59:45.317Z,9.40
2023-01-12T16:02:34.204Z,21.07
2023-01-12T16:05:02.561Z,27.27
2023-01-12T16:07:30.665Z,35.10
2023-01-12T16:09:59.033Z,17.30
2023-01-12T16:12:27.232Z,20.37
2023-01-12T16:14:56.552Z,17.20
2023-01-12T16:17:24.692Z,6.07
2023-01-12T16:19:54.091Z,3.37
2023-01-12T16:22:26.315Z,2.37
2023-01-12T16:24:57.038Z,1.80
2023-01-12T16:27:27.011Z,2.60
2023-01-12T16:29:55.463Z,2.37
2023-01-12T16:32:25.035Z,3.70
2023-01-12T16:34:54.881Z,3.37
2023-01-12T16:37:27.368Z,3.43
2023-01-12T16:39:55.971Z,3.50
2023-01-12T16:42:24.053Z,4.90
2023-01-12T16:44:52.218Z,4.80
2023-01-12T16:47:21.509Z,5.20
2023-01-12T16:49:51.002Z,5.70
2023-01-12T16:52:22.558Z,4.50
2023-01-12T16:54:50.894Z,4.93
2023-01-12T16:57:20.205Z,7.20
2023-01-12T16:59:49.590Z,13.93
2023-01-12T17:02:19.443Z,40.73
2023-01-12T17:04:49.189Z,14.93
2023-01-12T17:07:17.430Z,4.90
2023-01-12T17:09:46.951Z,2.83
2023-01-12T17:12:15.359Z,2.60
2023-01-12T17:14:43.807Z,2.13
2023-01-12T17:17:12.576Z,2.33
2023-01-12T17:19:42.957Z,2.83
2023-01-12T17:22:11.928Z,2.70
2023-01-12T17:24:41.750Z,2.20
2023-01-12T17:27:12.098Z,2.90
2023-01-12T17:29:40.364Z,4.73
2023-01-12T17:32:09.165Z,3.70
2023-01-12T17:34:39.536Z,3.70
2023-01-12T17:37:08.736Z,3.67
2023-01-12T17:39:39.711Z,3.30
2023-01-12T17:42:25.803Z,2.77
2023-01-12T17:44:55.297Z,3.80
2023-01-12T17:47:23.517Z,5.50
2023-01-12T17:49:52.613Z,18.00
2023-01-12T17:52:20.995Z,24.10
2023-01-12T17:54:49.181Z,9.30
2023-01-12T17:57:17.243Z,7.30
2023-01-12T17:59:45.341Z,9.87
2023-01-12T18:02:15.316Z,7.07
2023-01-12T18:04:43.511Z,6.50
2023-01-12T18:07:11.822Z,7.60
2023-01-12T18:09:39.893Z,9.53
2023-01-12T18:12:10.398Z,3.30
2023-01-12T18:14:38.877Z,2.20
2023-01-12T18:17:09.270Z,2.50
2023-01-12T18:19:40.199Z,2.90
2023-01-12T18:22:11.002Z,2.70
2023-01-12T18:24:39.216Z,2.30
2023-01-12T18:27:07.274Z,1.57
2023-01-12T18:29:35.677Z,2.27
2023-01-12T18:32:04.026Z,2.53
2023-01-12T18:34:32.025Z,1.97
2023-01-12T18:37:01.380Z,3.00
2023-01-12T18:39:30.286Z,3.10
2023-01-12T18:42:15.859Z,3.77
2023-01-12T18:44:44.329Z,3.53
2023-01-12T18:47:33.138Z,3.17
2023-01-12T18:50:21.795Z,3.10
